createdAt,value
2023-04-28T00:01:28.325Z,0.20
2023-04-28T00:03:55.827Z,0.20
2023-04-28T00:06:22.557Z,0.20
2023-04-28T00:08:49.166Z,0.20
2023-04-28T00:11:15.874Z,0.20
2023-04-28T00:13:42.462Z,0.20
2023-04-28T00:16:09.074Z,0.13
2023-04-28T00:18:35.948Z,0.20
2023-04-28T00:21:02.512Z,0.20
2023-04-28T00:23:29.111Z,0.20
2023-04-28T00:25:56.847Z,0.40
2023-04-28T00:28:33.672Z,0.10
2023-04-28T00:31:01.582Z,0.20
2023-04-28T00:33:28.167Z,0.20
2023-04-28T00:36:01.605Z,0.20
2023-04-28T00:38:28.477Z,0.20
2023-04-28T00:40:55.182Z,0.13
2023-04-28T00:43:21.979Z,0.20
2023-04-28T00:45:52.166Z,0.20
2023-04-28T00:48:19.469Z,0.20
2023-04-28T00:50:46.869Z,0.20
2023-04-28T00:53:13.928Z,0.10
2023-04-28T00:55:40.842Z,0.80
2023-04-28T00:58:08.200Z,0.20
2023-04-28T01:00:35.174Z,0.20
2023-04-28T01:03:02.023Z,0.10
2023-04-28T01:05:29.714Z,0.20
2023-04-28T01:07:56.308Z,0.20
2023-04-28T01:10:23.024Z,0.20
2023-04-28T01:12:49.661Z,0.10
2023-04-28T01:15:17.966Z,0.20
2023-04-28T01:17:45.904Z,0.20
2023-04-28T01:20:12.852Z,0.20
2023-04-28T01:22:39.468Z,0.10
2023-04-28T01:25:06.693Z,0.20
2023-04-28T01:27:33.438Z,0.20
2023-04-28T01:30:00.061Z,0.20
2023-04-28T01:32:26.798Z,0.20
2023-04-28T01:34:53.455Z,0.20
2023-04-28T01:37:20.052Z,0.20
2023-04-28T01:39:46.674Z,0.20
2023-04-28T01:42:13.288Z,0.10
2023-04-28T01:44:40.407Z,0.20
2023-04-28T01:47:06.999Z,0.20
2023-04-28T01:49:33.538Z,0.20
2023-04-28T01:52:00.129Z,0.30
2023-04-28T01:54:27.558Z,0.20
2023-04-28T01:56:54.207Z,0.20
2023-04-28T01:59:20.869Z,0.20
2023-04-28T02:01:47.553Z,0.10
2023-04-28T02:04:14.382Z,0.20
2023-04-28T02:06:41.166Z,0.20
2023-04-28T02:09:07.720Z,0.20
2023-04-28T02:11:34.352Z,0.20
2023-04-28T02:14:01.249Z,0.20
2023-04-28T02:16:27.988Z,0.20
2023-04-28T02:18:54.577Z,0.10
2023-04-28T02:21:21.251Z,0.20
2023-04-28T02:23:47.930Z,0.10
2023-04-28T02:26:14.686Z,0.10
2023-04-28T02:28:41.275Z,0.20
2023-04-28T02:31:09.643Z,0.20
2023-04-28T02:33:36.948Z,0.20
2023-04-28T02:36:04.617Z,1.90
2023-04-28T02:38:31.291Z,0.20
2023-04-28T02:41:02.149Z,0.20
2023-04-28T02:43:28.964Z,0.20
2023-04-28T02:45:55.853Z,0.20
2023-04-28T02:48:22.983Z,0.20
2023-04-28T02:50:49.866Z,0.30
2023-04-28T02:53:16.658Z,0.10
2023-04-28T02:55:43.205Z,0.20
2023-04-28T02:58:09.827Z,6.33
2023-04-28T03:00:36.810Z,0.10
2023-04-28T03:03:03.744Z,0.20
2023-04-28T03:05:30.423Z,0.10
2023-04-28T03:07:57.039Z,0.20
2023-04-28T03:10:23.617Z,0.20
2023-04-28T03:12:50.187Z,0.20
2023-04-28T03:15:16.783Z,0.20
2023-04-28T03:17:44.348Z,0.10
2023-04-28T03:20:11.622Z,0.20
2023-04-28T03:22:38.203Z,0.20
2023-04-28T03:25:05.858Z,0.20
2023-04-28T03:27:32.470Z,0.20
2023-04-28T03:29:59.052Z,0.13
2023-04-28T03:32:25.719Z,0.20
2023-04-28T03:34:52.340Z,0.20
2023-04-28T03:37:18.944Z,0.20
2023-04-28T03:39:45.661Z,0.20
2023-04-28T03:42:12.273Z,0.10
2023-04-28T03:44:38.860Z,0.20
2023-04-28T03:47:05.821Z,0.20
2023-04-28T03:49:32.421Z,0.10
2023-04-28T03:51:59.033Z,1.30
2023-04-28T03:54:25.767Z,0.20
2023-04-28T03:56:52.410Z,0.20
2023-04-28T03:59:18.980Z,0.30
2023-04-28T04:01:45.602Z,0.20
2023-04-28T04:04:12.426Z,0.20
2023-04-28T04:06:39.139Z,0.10
2023-04-28T04:09:05.752Z,0.20
2023-04-28T04:11:32.349Z,0.20
2023-04-28T04:13:58.906Z,0.10
2023-04-28T04:16:25.718Z,0.20
2023-04-28T04:18:52.300Z,0.20
2023-04-28T04:21:18.864Z,0.10
2023-04-28T04:23:45.565Z,0.10
2023-04-28T04:26:12.168Z,0.10
2023-04-28T04:28:38.759Z,0.20
2023-04-28T04:31:05.381Z,0.30
2023-04-28T04:33:32.074Z,0.17
2023-04-28T04:35:58.662Z,0.20
2023-04-28T04:38:25.532Z,0.20
2023-04-28T04:40:52.432Z,0.33
2023-04-28T04:43:19.038Z,0.20
2023-04-28T04:45:45.895Z,0.20
2023-04-28T04:48:12.844Z,0.20
2023-04-28T04:50:39.835Z,0.20
2023-04-28T04:53:07.189Z,0.37
2023-04-28T04:55:35.084Z,0.20
2023-04-28T04:58:01.660Z,0.10
2023-04-28T05:00:28.398Z,0.20
2023-04-28T05:02:55.233Z,0.20
2023-04-28T05:05:23.004Z,0.23
2023-04-28T05:07:50.014Z,0.20
2023-04-28T05:10:16.879Z,0.10
2023-04-28T05:12:46.817Z,0.10
2023-04-28T05:15:14.983Z,0.20
2023-04-28T05:17:41.751Z,0.20
2023-04-28T05:20:09.404Z,0.10
2023-04-28T05:22:36.847Z,0.10
2023-04-28T05:25:03.515Z,0.20
2023-04-28T05:27:30.139Z,4.30
2023-04-28T05:29:56.726Z,5.27
2023-04-28T05:32:23.484Z,5.37
2023-04-28T05:34:50.214Z,5.93
2023-04-28T05:37:16.830Z,5.43
2023-04-28T05:39:43.414Z,4.97
2023-04-28T05:42:10.052Z,4.60
2023-04-28T05:44:36.757Z,4.07
2023-04-28T05:47:03.365Z,3.77
2023-04-28T05:49:29.924Z,3.73
2023-04-28T05:51:56.516Z,3.60
2023-04-28T05:54:23.148Z,3.30
2023-04-28T05:56:49.787Z,3.70
2023-04-28T05:59:16.620Z,3.50
2023-04-28T06:01:43.398Z,3.60
2023-04-28T06:04:18.138Z,3.58
2023-04-28T06:06:45.086Z,4.13
2023-04-28T06:09:11.794Z,4.07
2023-04-28T06:11:38.383Z,3.80
2023-04-28T06:14:05.006Z,3.73
2023-04-28T06:16:31.772Z,3.47
2023-04-28T06:18:58.458Z,3.57
2023-04-28T06:21:25.366Z,3.20
2023-04-28T06:23:52.042Z,3.43
2023-04-28T06:26:18.858Z,2.90
2023-04-28T06:28:45.574Z,3.00
2023-04-28T06:31:12.197Z,2.80
2023-04-28T06:33:38.821Z,2.93
2023-04-28T06:36:05.915Z,2.63
2023-04-28T06:38:32.538Z,2.67
2023-04-28T06:40:59.163Z,2.50
2023-04-28T06:43:25.756Z,2.13
2023-04-28T06:45:52.414Z,2.70
2023-04-28T06:48:19.387Z,2.60
2023-04-28T06:50:46.062Z,2.43
2023-04-28T06:53:12.653Z,2.87
2023-04-28T06:55:39.318Z,2.83
2023-04-28T06:58:06.151Z,2.53
2023-04-28T07:00:32.855Z,2.10
2023-04-28T07:02:59.603Z,2.23
2023-04-28T07:05:26.406Z,2.40
2023-04-28T07:07:53.108Z,2.00
2023-04-28T07:10:20.001Z,2.50
2023-04-28T07:12:46.683Z,2.33
2023-04-28T07:15:13.313Z,2.37
2023-04-28T07:17:39.875Z,2.50
2023-04-28T07:20:07.120Z,2.40
2023-04-28T07:22:33.690Z,2.80
2023-04-28T07:25:00.289Z,2.20
2023-04-28T07:27:27.081Z,3.10
2023-04-28T07:29:53.724Z,2.20
2023-04-28T07:32:20.496Z,2.10
2023-04-28T07:34:47.120Z,2.13
2023-04-28T07:37:13.740Z,2.53
2023-04-28T07:39:41.857Z,2.30
2023-04-28T07:42:08.531Z,2.40
2023-04-28T07:44:35.165Z,2.40
2023-04-28T07:47:02.393Z,2.40
2023-04-28T07:49:29.642Z,3.07
2023-04-28T07:51:56.717Z,2.43
2023-04-28T07:54:23.387Z,3.17
2023-04-28T07:56:50.264Z,2.50
2023-04-28T07:59:16.897Z,2.27
2023-04-28T08:01:43.490Z,2.57
2023-04-28T08:04:11.379Z,2.83
2023-04-28T08:06:39.200Z,2.27
2023-04-28T08:09:06.485Z,2.30
2023-04-28T08:11:34.726Z,2.73
2023-04-28T08:14:03.071Z,2.47
2023-04-28T08:16:30.548Z,2.60
2023-04-28T08:18:57.796Z,3.17
2023-04-28T08:21:24.478Z,2.70
2023-04-28T08:23:51.127Z,3.23
2023-04-28T08:26:17.766Z,3.10
2023-04-28T08:28:44.461Z,2.63
2023-04-28T08:31:11.138Z,2.47
2023-04-28T08:33:37.751Z,2.40
2023-04-28T08:36:05.137Z,2.87
2023-04-28T08:38:31.814Z,2.87
2023-04-28T08:40:58.435Z,2.80
2023-04-28T08:43:25.590Z,2.30
2023-04-28T08:45:52.426Z,2.33
2023-04-28T08:48:20.679Z,1.80
2023-04-28T08:50:52.950Z,2.50
2023-04-28T08:53:23.860Z,2.29
2023-04-28T08:55:52.844Z,2.40
2023-04-28T08:58:19.956Z,2.30
2023-04-28T09:00:46.737Z,2.10
2023-04-28T09:03:13.870Z,2.87
2023-04-28T09:05:40.644Z,2.27
2023-04-28T09:08:07.425Z,2.90
2023-04-28T09:10:34.177Z,2.00
2023-04-28T09:13:00.728Z,2.27
2023-04-28T09:15:34.111Z,2.07
2023-04-28T09:18:02.690Z,3.83
2023-04-28T09:20:31.066Z,2.60
2023-04-28T09:23:14.056Z,2.33
2023-04-28T09:25:40.667Z,3.07
2023-04-28T09:28:22.085Z,2.13
2023-04-28T09:30:48.928Z,2.57
2023-04-28T09:33:16.382Z,3.03
2023-04-28T09:35:45.413Z,2.77
2023-04-28T09:38:12.398Z,2.70
2023-04-28T09:41:03.447Z,2.50
2023-04-28T09:43:35.346Z,2.60
2023-04-28T09:46:04.995Z,2.90
2023-04-28T09:48:36.900Z,3.23
2023-04-28T09:51:07.926Z,2.43
2023-04-28T09:53:41.763Z,2.42
2023-04-28T09:56:08.855Z,2.87
2023-04-28T09:58:39.680Z,2.50
2023-04-28T10:01:06.884Z,2.00
2023-04-28T10:03:33.861Z,2.40
2023-04-28T10:06:02.200Z,2.57
2023-04-28T10:08:29.241Z,2.20
2023-04-28T10:10:56.953Z,2.27
2023-04-28T10:13:24.304Z,2.20
2023-04-28T10:15:51.631Z,2.57
2023-04-28T10:18:18.839Z,2.93
2023-04-28T10:20:50.432Z,2.57
2023-04-28T10:23:29.049Z,2.10
2023-04-28T10:25:59.644Z,2.37
2023-04-28T10:28:29.267Z,2.20
2023-04-28T10:31:12.210Z,2.20
2023-04-28T10:33:39.941Z,2.33
2023-04-28T10:36:07.502Z,2.60
2023-04-28T10:38:35.065Z,2.33
2023-04-28T10:41:05.018Z,2.37
2023-04-28T10:43:38.053Z,2.43
2023-04-28T10:46:06.707Z,2.27
2023-04-28T10:48:33.409Z,2.50
2023-04-28T10:51:14.950Z,2.40
2023-04-28T10:53:44.681Z,2.77
2023-04-28T10:56:11.597Z,2.43
2023-04-28T10:58:42.715Z,2.40
2023-04-28T11:01:21.953Z,2.33
2023-04-28T11:03:52.154Z,2.70
2023-04-28T11:06:34.546Z,2.93
2023-04-28T11:09:14.689Z,2.60
2023-04-28T11:12:01.383Z,2.80
2023-04-28T11:14:37.520Z,2.60
2023-04-28T11:17:13.585Z,2.20
2023-04-28T11:19:45.027Z,2.17
2023-04-28T11:22:19.526Z,2.27
2023-04-28T11:25:02.994Z,2.10
2023-04-28T11:27:33.859Z,2.33
2023-04-28T11:30:01.821Z,2.40
2023-04-28T11:32:31.506Z,2.10
2023-04-28T11:34:58.249Z,2.30
2023-04-28T11:37:25.225Z,2.33
2023-04-28T11:39:51.904Z,2.40
2023-04-28T11:42:18.570Z,1.90
2023-04-28T11:44:52.978Z,2.00
2023-04-28T11:47:35.333Z,2.13
2023-04-28T11:50:03.268Z,2.20
2023-04-28T11:52:30.166Z,2.50
2023-04-28T11:54:59.225Z,2.50
2023-04-28T11:57:26.847Z,2.37
2023-04-28T11:59:53.552Z,2.10
2023-04-28T12:02:30.873Z,2.40
2023-04-28T12:05:06.622Z,2.30
2023-04-28T12:07:42.363Z,1.93
2023-04-28T12:10:14.343Z,2.30
2023-04-28T12:12:51.025Z,2.07
2023-04-28T12:15:21.248Z,2.50
2023-04-28T12:17:50.742Z,1.87
2023-04-28T12:20:37.164Z,2.27
2023-04-28T12:23:04.320Z,2.40
2023-04-28T12:25:31.217Z,2.17
2023-04-28T12:28:04.992Z,2.20
2023-04-28T12:30:33.472Z,1.93
2023-04-28T12:33:00.408Z,2.10
2023-04-28T12:35:28.796Z,2.33
2023-04-28T12:37:58.420Z,2.30
2023-04-28T12:40:25.116Z,2.90
2023-04-28T12:42:51.865Z,2.87
2023-04-28T12:45:18.659Z,2.80
2023-04-28T12:47:45.373Z,2.53
2023-04-28T12:50:12.219Z,2.20
2023-04-28T12:52:38.856Z,2.00
2023-04-28T12:55:06.090Z,2.50
2023-04-28T12:57:32.751Z,2.37
2023-04-28T12:59:59.364Z,2.50
2023-04-28T13:02:26.156Z,2.10
2023-04-28T13:04:53.521Z,2.53
2023-04-28T13:07:20.644Z,2.20
2023-04-28T13:09:47.939Z,2.53
2023-04-28T13:12:15.133Z,3.17
2023-04-28T13:14:42.278Z,2.40
2023-04-28T13:17:12.511Z,2.30
2023-04-28T13:19:40.053Z,2.30
2023-04-28T13:22:07.105Z,2.60
2023-04-28T13:24:33.786Z,3.57
2023-04-28T13:27:00.668Z,3.07
2023-04-28T13:29:27.314Z,2.37
2023-04-28T13:31:54.304Z,2.73
2023-04-28T13:34:21.196Z,3.30
2023-04-28T13:36:50.763Z,2.43
2023-04-28T13:39:20.272Z,2.83
2023-04-28T13:41:47.018Z,2.30
2023-04-28T13:44:13.629Z,2.70
2023-04-28T13:46:40.398Z,2.67
2023-04-28T13:49:10.923Z,2.70
2023-04-28T13:51:37.755Z,2.60
2023-04-28T13:54:05.495Z,2.40
2023-04-28T13:56:32.206Z,2.07
2023-04-28T13:58:59.047Z,2.20
2023-04-28T14:01:25.973Z,2.27
2023-04-28T14:03:52.791Z,2.30
2023-04-28T14:06:19.693Z,2.47
2023-04-28T14:08:46.635Z,2.57
2023-04-28T14:11:13.327Z,2.30
2023-04-28T14:13:40.150Z,2.50
2023-04-28T14:16:07.313Z,3.27
2023-04-28T14:18:34.464Z,2.90
2023-04-28T14:21:02.278Z,2.40
2023-04-28T14:23:29.466Z,3.27
2023-04-28T14:25:57.061Z,2.93
2023-04-28T14:28:24.006Z,5.67
2023-04-28T14:30:50.697Z,2.70
2023-04-28T14:33:17.476Z,2.60
2023-04-28T14:35:44.441Z,2.53
2023-04-28T14:38:11.152Z,2.90
2023-04-28T14:40:37.775Z,2.40
2023-04-28T14:43:04.341Z,2.40
2023-04-28T14:45:31.464Z,2.57
2023-04-28T14:47:58.220Z,3.30
2023-04-28T14:50:25.048Z,3.67
2023-04-28T14:52:51.803Z,3.10
2023-04-28T14:55:18.510Z,2.57
2023-04-28T14:57:45.147Z,2.50
2023-04-28T15:00:12.346Z,2.43
2023-04-28T15:02:39.256Z,2.80
2023-04-28T15:05:06.617Z,2.80
2023-04-28T15:07:33.449Z,2.10
2023-04-28T15:10:00.335Z,2.90
2023-04-28T15:12:30.154Z,3.30
2023-04-28T15:14:57.010Z,3.30
2023-04-28T15:17:23.727Z,3.03
2023-04-28T15:19:50.410Z,2.33
2023-04-28T15:22:17.086Z,2.67
2023-04-28T15:24:43.822Z,2.50
2023-04-28T15:27:10.887Z,2.73
2023-04-28T15:29:37.565Z,3.30
2023-04-28T15:32:04.977Z,2.97
2023-04-28T15:34:31.573Z,2.70
2023-04-28T15:36:58.217Z,3.00
2023-04-28T15:39:25.776Z,2.87
2023-04-28T15:41:56.118Z,2.60
2023-04-28T15:44:23.218Z,2.40
2023-04-28T15:46:51.873Z,3.03
2023-04-28T15:49:18.660Z,3.00
2023-04-28T15:51:45.773Z,3.37
2023-04-28T15:54:12.405Z,3.17
2023-04-28T15:56:39.135Z,2.83
2023-04-28T15:59:05.754Z,3.23
2023-04-28T16:01:32.429Z,3.07
2023-04-28T16:03:59.352Z,2.90
2023-04-28T16:06:26.073Z,2.90
2023-04-28T16:08:52.827Z,3.97
2023-04-28T16:11:20.518Z,4.30
2023-04-28T16:13:47.348Z,3.50
2023-04-28T16:16:14.264Z,3.60
2023-04-28T16:18:41.049Z,4.20
2023-04-28T16:21:07.742Z,3.97
2023-04-28T16:23:34.681Z,3.63
2023-04-28T16:26:01.481Z,3.53
2023-04-28T16:28:28.166Z,5.00
2023-04-28T16:30:54.771Z,5.10
2023-04-28T16:33:21.386Z,5.33
2023-04-28T16:35:56.043Z,4.07
2023-04-28T16:38:22.827Z,4.00
2023-04-28T16:40:50.111Z,5.33
2023-04-28T16:43:17.312Z,6.80
2023-04-28T16:45:44.054Z,6.50
2023-04-28T16:48:10.744Z,7.63
2023-04-28T16:50:39.624Z,4.53
2023-04-28T16:53:08.115Z,5.20
2023-04-28T16:55:36.621Z,5.37
2023-04-28T16:58:03.952Z,5.40
2023-04-28T17:00:31.065Z,5.83
2023-04-28T17:02:57.737Z,5.37
2023-04-28T17:05:24.480Z,8.80
2023-04-28T17:07:51.189Z,6.43
2023-04-28T17:10:17.877Z,4.83
2023-04-28T17:12:45.694Z,4.83
2023-04-28T17:15:17.325Z,4.40
2023-04-28T17:17:46.665Z,5.80
2023-04-28T17:20:16.808Z,4.80
2023-04-28T17:22:44.035Z,5.10
2023-04-28T17:25:12.192Z,5.23
2023-04-28T17:27:39.251Z,5.07
2023-04-28T17:30:10.552Z,9.13
2023-04-28T17:32:38.010Z,6.47
2023-04-28T17:35:06.051Z,5.50
2023-04-28T17:37:33.580Z,5.67
2023-04-28T17:40:00.892Z,5.80
2023-04-28T17:42:31.752Z,4.93
2023-04-28T17:44:58.348Z,5.80
2023-04-28T17:47:25.100Z,5.03
2023-04-28T17:49:51.943Z,6.93
2023-04-28T17:52:18.748Z,5.67
2023-04-28T17:54:45.417Z,10.20
2023-04-28T17:57:13.023Z,32.83
2023-04-28T17:59:40.682Z,6.60
2023-04-28T18:02:11.351Z,5.97
2023-04-28T18:04:39.323Z,7.53
2023-04-28T18:07:07.244Z,9.33
2023-04-28T18:09:34.018Z,7.30
2023-04-28T18:12:03.137Z,6.53
2023-04-28T18:14:29.995Z,5.60
2023-04-28T18:16:56.896Z,6.10
2023-04-28T18:19:26.434Z,5.47
2023-04-28T18:21:55.138Z,5.67
2023-04-28T18:24:21.738Z,6.50
2023-04-28T18:26:48.345Z,6.80
2023-04-28T18:29:15.247Z,5.83
2023-04-28T18:31:42.413Z,5.70
2023-04-28T18:34:09.475Z,6.30
2023-04-28T18:36:36.146Z,8.77
2023-04-28T18:39:07.067Z,11.60
2023-04-28T18:41:35.323Z,9.00
2023-04-28T18:44:03.024Z,10.10
2023-04-28T18:46:29.709Z,8.13
2023-04-28T18:48:56.729Z,7.13
2023-04-28T18:51:23.393Z,7.60
2023-04-28T18:53:50.085Z,7.70
2023-04-28T18:56:17.291Z,8.57
2023-04-28T18:58:43.980Z,6.37
2023-04-28T19:01:17.824Z,6.90
2023-04-28T19:03:44.966Z,7.67
2023-04-28T19:06:11.994Z,9.40
2023-04-28T19:08:39.221Z,13.53
2023-04-28T19:11:07.196Z,12.90
2023-04-28T19:13:34.590Z,12.80
2023-04-28T19:16:01.298Z,9.67
2023-04-28T19:18:28.680Z,10.97
2023-04-28T19:21:00.808Z,12.23
2023-04-28T19:23:28.369Z,13.10
2023-04-28T19:25:57.044Z,8.50
2023-04-28T19:28:25.997Z,8.37
2023-04-28T19:30:54.006Z,7.60
2023-04-28T19:33:21.111Z,7.50
2023-04-28T19:35:47.702Z,6.50
2023-04-28T19:38:16.864Z,6.93
2023-04-28T19:40:43.995Z,6.57
2023-04-28T19:43:11.559Z,6.77
2023-04-28T19:45:38.609Z,6.03
2023-04-28T19:48:05.593Z,8.33
2023-04-28T19:50:32.413Z,7.10
2023-04-28T19:52:59.170Z,6.57
2023-04-28T19:55:25.757Z,5.73
2023-04-28T19:57:53.861Z,5.80
2023-04-28T20:00:21.767Z,11.80
2023-04-28T20:02:51.029Z,8.43
2023-04-28T20:05:18.178Z,8.93
2023-04-28T20:07:44.756Z,13.90
2023-04-28T20:10:14.118Z,10.47
2023-04-28T20:12:41.338Z,10.70
2023-04-28T20:15:08.856Z,13.50
2023-04-28T20:17:35.604Z,13.27
2023-04-28T20:20:04.772Z,6.67
2023-04-28T20:22:32.704Z,8.37
2023-04-28T20:25:01.390Z,5.57
2023-04-28T20:27:28.169Z,6.50
2023-04-28T20:29:54.814Z,5.00
2023-04-28T20:32:21.505Z,5.07
2023-04-28T20:34:48.231Z,4.70
2023-04-28T20:37:15.325Z,4.93
2023-04-28T20:39:41.906Z,5.37
2023-04-28T20:42:08.577Z,5.17
2023-04-28T20:44:35.908Z,5.00
2023-04-28T20:47:02.585Z,4.93
2023-04-28T20:49:29.380Z,4.90
2023-04-28T20:52:02.503Z,4.77
2023-04-28T20:54:29.061Z,5.23
2023-04-28T20:56:55.687Z,5.03
2023-04-28T20:59:22.237Z,4.70
2023-04-28T21:01:48.837Z,4.70
2023-04-28T21:04:15.824Z,4.70
2023-04-28T21:06:42.528Z,4.10
2023-04-28T21:09:09.232Z,4.23
2023-04-28T21:11:35.831Z,4.27
2023-04-28T21:14:02.435Z,4.80
2023-04-28T21:16:29.157Z,4.93
2023-04-28T21:18:56.071Z,4.57
2023-04-28T21:21:22.803Z,4.80
2023-04-28T21:23:49.683Z,5.27
2023-04-28T21:26:16.272Z,5.10
2023-04-28T21:28:42.934Z,4.87
2023-04-28T21:31:09.982Z,4.70
2023-04-28T21:33:36.632Z,4.13
2023-04-28T21:36:10.294Z,5.47
2023-04-28T21:38:37.945Z,4.37
2023-04-28T21:41:05.200Z,4.80
2023-04-28T21:43:31.778Z,4.30
2023-04-28T21:45:58.404Z,4.20
2023-04-28T21:48:25.045Z,4.40
2023-04-28T21:50:51.990Z,5.00
2023-04-28T21:53:18.579Z,4.43
2023-04-28T21:55:45.224Z,4.23
2023-04-28T21:58:12.367Z,4.57
2023-04-28T22:00:43.298Z,4.30
2023-04-28T22:03:10.807Z,4.10
2023-04-28T22:05:38.376Z,4.83
2023-04-28T22:08:05.729Z,3.93
2023-04-28T22:10:34.229Z,3.90
2023-04-28T22:13:01.195Z,3.60
2023-04-28T22:15:27.884Z,4.00
2023-04-28T22:17:54.622Z,3.60
2023-04-28T22:20:21.503Z,4.10
2023-04-28T22:22:48.048Z,4.27
2023-04-28T22:25:14.613Z,4.00
2023-04-28T22:27:41.736Z,3.93
2023-04-28T22:30:08.829Z,4.47
2023-04-28T22:32:35.567Z,4.27
2023-04-28T22:35:02.215Z,4.70
2023-04-28T22:37:28.795Z,5.10
2023-04-28T22:39:55.454Z,5.00
2023-04-28T22:42:22.098Z,5.20
2023-04-28T22:44:48.679Z,5.30
2023-04-28T22:47:15.827Z,4.90
2023-04-28T22:49:42.594Z,4.80
2023-04-28T22:52:09.154Z,5.90
2023-04-28T22:54:38.880Z,6.27
2023-04-28T22:57:05.540Z,5.93
2023-04-28T22:59:33.093Z,6.10
2023-04-28T23:01:59.792Z,7.47
2023-04-28T23:04:26.811Z,6.43
2023-04-28T23:06:53.560Z,7.97
2023-04-28T23:09:20.309Z,8.17
2023-04-28T23:11:47.050Z,8.43
2023-04-28T23:14:13.679Z,8.03
2023-04-28T23:16:40.433Z,8.10
2023-04-28T23:19:07.103Z,8.37
2023-04-28T23:21:33.676Z,7.03
2023-04-28T23:24:00.357Z,6.87
2023-04-28T23:26:26.977Z,6.30
2023-04-28T23:28:53.608Z,6.20
2023-04-28T23:31:20.345Z,5.80
2023-04-28T23:33:47.021Z,7.40
2023-04-28T23:36:13.847Z,6.63
2023-04-28T23:38:41.104Z,6.83
2023-04-28T23:41:09.102Z,5.83
2023-04-28T23:43:35.767Z,6.37
2023-04-28T23:46:02.947Z,5.97
2023-04-28T23:48:29.618Z,6.43
2023-04-28T23:50:56.658Z,4.83
2023-04-28T23:53:23.382Z,4.63
2023-04-28T23:55:50.499Z,4.63
2023-04-28T23:58:17.417Z,4.50
